Manchester, WA (98353)

10:32 AM PDT on July 30, 2016 (GMT -0700)
Point Glover Knoll | | Change Station

Elev 220 ft 47.57 °N, 122.57 °W | Updated 25 seconds ago

Overcast
Overcast
63.5 °F
Feels Like 63.5 °F
N
1.3
Wind Variable Wind from SSW
Gusts 4.9 mph

Today
High -- | Low -- °F
--% Chance of Precip.
Yesterday
High -- | Low -- °F
Precip. -- in
Pressure 30.02 in
Visibility 10.0 miles
Clouds Overcast 1400 ft
Dew Point 53 °F
Humidity 68%
Rainfall 0.00 in
Snow Depth Not available.
5:46 AM 8:46 PM
Waning Crescent, 12% visible
METAR KPWT 301715Z AUTO 18008KT 10SM OVC014 15/11 A3002 RMK AO1
Pressure 30.02 in
Visibility 10.0 miles
Clouds Overcast 1400 ft
Dew Point 53 °F
Humidity 68%
Rainfall 0.00 in
Snow Depth Not available.
5:46 AM 8:46 PM
Waning Crescent, 12% visible
METAR KPWT 301715Z AUTO 18008KT 10SM OVC014 15/11 A3002 RMK AO1

10-Day Weather Forecast

Almanac

Astronomy

Jul. 30, 2016 Rise Set
Actual Time
Civil Twilight
Nautical Twilight
Astronomical Twilight
Moon
Length of Visible Light
Length of Day
Tomorrow will be .
, % of the Moon is Illuminated

Today's Extremes

State Highs State Lows

Community

WunderPhotos

Upload Photos

1,928,600 photos uploaded!

WunderBlog® & News

Nearby

Air Quality

  Air Quality AQ Index Pollutant
Not available.

Snow Depth

Station Depth Elevation

Earthquake Activity

City Distance Mag. Time & Date
Minimum magnitude displayed is 2.5.

Coastal Water Temperatures

Place Temperature

Stations

Nearby Weather Stations

Station Location Temp. Windchill Dew Point Humidity Wind Precip. Elev Updated Type
                   

Watches & Warnings

There are currently no watches in effect.